sensor_id;sensor_type;location;lat;lon;timestamp;temperature;humidity
47765;DHT22;33529;49.242;8.670;2022-08-01T00:00:07;20.40;87.40
47765;DHT22;33529;49.242;8.670;2022-08-01T00:02:39;20.40;88.10
47765;DHT22;33529;49.242;8.670;2022-08-01T00:05:08;20.30;88.20
47765;DHT22;33529;49.242;8.670;2022-08-01T00:07:35;20.30;89.00
47765;DHT22;33529;49.242;8.670;2022-08-01T00:10:03;20.30;88.90
47765;DHT22;33529;49.242;8.670;2022-08-01T00:12:30;20.30;90.30
47765;DHT22;33529;49.242;8.670;2022-08-01T00:14:57;20.20;90.80
47765;DHT22;33529;49.242;8.670;2022-08-01T00:17:24;20.20;90.40
47765;DHT22;33529;49.242;8.670;2022-08-01T00:19:51;20.10;90.50
47765;DHT22;33529;49.242;8.670;2022-08-01T00:22:18;20.00;90.90
47765;DHT22;33529;49.242;8.670;2022-08-01T00:24:45;20.00;91.10
47765;DHT22;33529;49.242;8.670;2022-08-01T00:27:12;20.00;91.30
47765;DHT22;33529;49.242;8.670;2022-08-01T00:29:39;20.00;91.20
47765;DHT22;33529;49.242;8.670;2022-08-01T00:32:26;20.10;91.50
47765;DHT22;33529;49.242;8.670;2022-08-01T00:34:52;20.00;91.90
47765;DHT22;33529;49.242;8.670;2022-08-01T00:37:20;20.00;92.00
47765;DHT22;33529;49.242;8.670;2022-08-01T00:39:46;19.90;92.30
47765;DHT22;33529;49.242;8.670;2022-08-01T00:42:13;19.90;93.00
47765;DHT22;33529;49.242;8.670;2022-08-01T00:44:40;19.80;92.70
47765;DHT22;33529;49.242;8.670;2022-08-01T00:47:08;19.80;92.80
47765;DHT22;33529;49.242;8.670;2022-08-01T00:49:35;19.60;92.80
47765;DHT22;33529;49.242;8.670;2022-08-01T00:52:03;19.50;93.20
47765;DHT22;33529;49.242;8.670;2022-08-01T00:54:32;19.50;93.80
47765;DHT22;33529;49.242;8.670;2022-08-01T00:56:59;19.40;93.80
47765;DHT22;33529;49.242;8.670;2022-08-01T00:59:26;19.40;94.00
47765;DHT22;33529;49.242;8.670;2022-08-01T01:01:53;19.40;94.80
47765;DHT22;33529;49.242;8.670;2022-08-01T01:04:21;19.30;95.10
47765;DHT22;33529;49.242;8.670;2022-08-01T01:09:50;19.20;95.30
47765;DHT22;33529;49.242;8.670;2022-08-01T01:15:39;19.20;95.70
47765;DHT22;33529;49.242;8.670;2022-08-01T01:31:49;19.10;97.40
47765;DHT22;33529;49.242;8.670;2022-08-01T01:34:19;19.10;97.70
47765;DHT22;33529;49.242;8.670;2022-08-01T01:36:48;19.10;97.80
47765;DHT22;33529;49.242;8.670;2022-08-01T01:39:16;19.10;98.10
47765;DHT22;33529;49.242;8.670;2022-08-01T01:41:45;19.10;97.90
47765;DHT22;33529;49.242;8.670;2022-08-01T01:44:15;19.20;98.20
47765;DHT22;33529;49.242;8.670;2022-08-01T01:46:43;19.20;98.20
47765;DHT22;33529;49.242;8.670;2022-08-01T01:49:10;19.20;98.40
47765;DHT22;33529;49.242;8.670;2022-08-01T01:51:39;19.20;98.50
47765;DHT22;33529;49.242;8.670;2022-08-01T01:54:15;19.20;98.70
47765;DHT22;33529;49.242;8.670;2022-08-01T01:56:42;19.20;99.00
47765;DHT22;33529;49.242;8.670;2022-08-01T01:59:20;19.20;98.90
47765;DHT22;33529;49.242;8.670;2022-08-01T02:01:53;19.20;99.20
47765;DHT22;33529;49.242;8.670;2022-08-01T02:04:34;19.20;99.10
47765;DHT22;33529;49.242;8.670;2022-08-01T02:07:02;19.20;99.70
47765;DHT22;33529;49.242;8.670;2022-08-01T02:09:30;19.20;99.40
47765;DHT22;33529;49.242;8.670;2022-08-01T02:11:59;19.20;99.40
47765;DHT22;33529;49.242;8.670;2022-08-01T02:14:35;19.20;99.60
47765;DHT22;33529;49.242;8.670;2022-08-01T02:17:03;19.10;99.70
47765;DHT22;33529;49.242;8.670;2022-08-01T02:19:32;19.10;99.90
47765;DHT22;33529;49.242;8.670;2022-08-01T02:22:11;19.10;99.90
47765;DHT22;33529;49.242;8.670;2022-08-01T02:27:36;19.00;99.90
47765;DHT22;33529;49.242;8.670;2022-08-01T02:30:08;19.00;99.90
47765;DHT22;33529;49.242;8.670;2022-08-01T02:32:43;19.00;99.90
47765;DHT22;33529;49.242;8.670;2022-08-01T02:35:13;19.00;99.90
47765;DHT22;33529;49.242;8.670;2022-08-01T02:37:45;18.90;99.90
47765;DHT22;33529;49.242;8.670;2022-08-01T02:40:15;18.80;99.90
47765;DHT22;33529;49.242;8.670;2022-08-01T02:42:45;18.80;99.90
47765;DHT22;33529;49.242;8.670;2022-08-01T02:45:15;18.70;99.90
47765;DHT22;33529;49.242;8.670;2022-08-01T02:47:45;18.60;99.90
47765;DHT22;33529;49.242;8.670;2022-08-01T02:50:14;18.50;99.90
47765;DHT22;33529;49.242;8.670;2022-08-01T02:52:42;18.50;99.90
47765;DHT22;33529;49.242;8.670;2022-08-01T02:55:12;18.50;99.90
47765;DHT22;33529;49.242;8.670;2022-08-01T02:57:40;18.50;99.90
47765;DHT22;33529;49.242;8.670;2022-08-01T03:00:23;18.50;99.90
47765;DHT22;33529;49.242;8.670;2022-08-01T03:02:52;18.60;99.90
47765;DHT22;33529;49.242;8.670;2022-08-01T03:05:22;18.60;99.90
47765;DHT22;33529;49.242;8.670;2022-08-01T03:07:51;18.60;99.90
47765;DHT22;33529;49.242;8.670;2022-08-01T03:10:20;18.50;99.90
47765;DHT22;33529;49.242;8.670;2022-08-01T03:12:49;18.50;99.90
47765;DHT22;33529;49.242;8.670;2022-08-01T03:15:17;18.50;99.90
47765;DHT22;33529;49.242;8.670;2022-08-01T03:17:46;18.40;99.90
47765;DHT22;33529;49.242;8.670;2022-08-01T03:20:15;18.30;99.90
47765;DHT22;33529;49.242;8.670;2022-08-01T03:22:44;18.30;99.90
47765;DHT22;33529;49.242;8.670;2022-08-01T03:25:14;18.30;99.90
47765;DHT22;33529;49.242;8.670;2022-08-01T03:27:48;18.30;99.90
47765;DHT22;33529;49.242;8.670;2022-08-01T03:30:16;18.20;99.90
47765;DHT22;33529;49.242;8.670;2022-08-01T03:32:43;18.20;99.90
47765;DHT22;33529;49.242;8.670;2022-08-01T03:35:10;18.30;99.90
47765;DHT22;33529;49.242;8.670;2022-08-01T03:37:42;18.20;99.90
47765;DHT22;33529;49.242;8.670;2022-08-01T03:40:38;18.10;99.90
47765;DHT22;33529;49.242;8.670;2022-08-01T03:43:53;18.00;99.90
47765;DHT22;33529;49.242;8.670;2022-08-01T03:46:06;17.90;99.90
47765;DHT22;33529;49.242;8.670;2022-08-01T03:48:38;17.90;99.90
47765;DHT22;33529;49.242;8.670;2022-08-01T03:51:07;17.90;99.90
47765;DHT22;33529;49.242;8.670;2022-08-01T03:53:37;18.00;99.90
47765;DHT22;33529;49.242;8.670;2022-08-01T03:56:08;18.10;99.90
47765;DHT22;33529;49.242;8.670;2022-08-01T03:58:39;18.00;99.90
47765;DHT22;33529;49.242;8.670;2022-08-01T04:01:07;18.00;99.90
47765;DHT22;33529;49.242;8.670;2022-08-01T04:03:42;18.00;99.90
47765;DHT22;33529;49.242;8.670;2022-08-01T04:06:09;17.90;99.90
47765;DHT22;33529;49.242;8.670;2022-08-01T04:08:38;17.90;99.90
47765;DHT22;33529;49.242;8.670;2022-08-01T04:11:05;17.80;99.90
47765;DHT22;33529;49.242;8.670;2022-08-01T04:13:34;17.70;99.90
47765;DHT22;33529;49.242;8.670;2022-08-01T04:16:03;17.60;99.90
47765;DHT22;33529;49.242;8.670;2022-08-01T04:18:30;17.70;99.90
47765;DHT22;33529;49.242;8.670;2022-08-01T04:20:57;17.80;99.90
47765;DHT22;33529;49.242;8.670;2022-08-01T04:23:25;18.00;99.90
47765;DHT22;33529;49.242;8.670;2022-08-01T04:25:54;18.00;99.90
47765;DHT22;33529;49.242;8.670;2022-08-01T04:28:22;18.00;99.90
47765;DHT22;33529;49.242;8.670;2022-08-01T04:30:53;18.10;99.90
47765;DHT22;33529;49.242;8.670;2022-08-01T04:33:28;18.10;99.90
47765;DHT22;33529;49.242;8.670;2022-08-01T04:35:58;17.90;99.90
47765;DHT22;33529;49.242;8.670;2022-08-01T04:38:32;18.00;99.90
47765;DHT22;33529;49.242;8.670;2022-08-01T04:41:00;18.00;99.90
47765;DHT22;33529;49.242;8.670;2022-08-01T04:43:34;17.90;99.90
47765;DHT22;33529;49.242;8.670;2022-08-01T04:46:02;17.90;99.90
47765;DHT22;33529;49.242;8.670;2022-08-01T04:48:32;17.90;99.90
47765;DHT22;33529;49.242;8.670;2022-08-01T04:51:00;17.80;99.90
47765;DHT22;33529;49.242;8.670;2022-08-01T04:53:27;17.80;99.90
47765;DHT22;33529;49.242;8.670;2022-08-01T04:55:54;17.80;99.90
47765;DHT22;33529;49.242;8.670;2022-08-01T04:58:22;17.80;99.90
47765;DHT22;33529;49.242;8.670;2022-08-01T05:00:49;17.80;99.90
47765;DHT22;33529;49.242;8.670;2022-08-01T05:03:16;17.90;99.90
47765;DHT22;33529;49.242;8.670;2022-08-01T05:05:43;17.90;99.90
47765;DHT22;33529;49.242;8.670;2022-08-01T05:08:10;17.90;99.90
47765;DHT22;33529;49.242;8.670;2022-08-01T05:10:37;18.10;99.90
47765;DHT22;33529;49.242;8.670;2022-08-01T05:13:04;18.10;99.90
47765;DHT22;33529;49.242;8.670;2022-08-01T05:15:30;18.20;99.90
47765;DHT22;33529;49.242;8.670;2022-08-01T05:17:57;18.30;99.90
47765;DHT22;33529;49.242;8.670;2022-08-01T05:20:24;18.40;99.90
47765;DHT22;33529;49.242;8.670;2022-08-01T05:22:51;18.40;99.90
47765;DHT22;33529;49.242;8.670;2022-08-01T05:25:18;18.50;99.90
47765;DHT22;33529;49.242;8.670;2022-08-01T05:27:46;18.60;99.90
47765;DHT22;33529;49.242;8.670;2022-08-01T05:30:17;18.80;99.90
47765;DHT22;33529;49.242;8.670;2022-08-01T05:32:43;18.90;99.90
47765;DHT22;33529;49.242;8.670;2022-08-01T05:35:10;19.10;99.90
47765;DHT22;33529;49.242;8.670;2022-08-01T05:37:37;19.30;99.90
47765;DHT22;33529;49.242;8.670;2022-08-01T05:40:05;19.40;99.90
47765;DHT22;33529;49.242;8.670;2022-08-01T05:42:33;19.50;99.90
47765;DHT22;33529;49.242;8.670;2022-08-01T05:45:00;19.70;99.90
47765;DHT22;33529;49.242;8.670;2022-08-01T05:47:27;20.00;99.90
47765;DHT22;33529;49.242;8.670;2022-08-01T05:49:54;20.20;99.90
47765;DHT22;33529;49.242;8.670;2022-08-01T05:52:21;20.40;99.90
47765;DHT22;33529;49.242;8.670;2022-08-01T05:54:48;20.60;99.90
47765;DHT22;33529;49.242;8.670;2022-08-01T05:57:15;20.90;99.90
47765;DHT22;33529;49.242;8.670;2022-08-01T05:59:41;21.00;99.90
47765;DHT22;33529;49.242;8.670;2022-08-01T06:02:08;21.30;99.90
47765;DHT22;33529;49.242;8.670;2022-08-01T06:04:36;21.50;99.90
47765;DHT22;33529;49.242;8.670;2022-08-01T06:07:03;21.70;99.90
47765;DHT22;33529;49.242;8.670;2022-08-01T06:09:30;22.00;99.90
47765;DHT22;33529;49.242;8.670;2022-08-01T06:11:57;22.20;99.90
47765;DHT22;33529;49.242;8.670;2022-08-01T06:14:24;22.30;99.90
47765;DHT22;33529;49.242;8.670;2022-08-01T06:16:51;22.50;99.90
47765;DHT22;33529;49.242;8.670;2022-08-01T06:19:18;22.60;99.90
47765;DHT22;33529;49.242;8.670;2022-08-01T06:21:44;22.90;99.90
47765;DHT22;33529;49.242;8.670;2022-08-01T06:24:11;22.80;99.90
47765;DHT22;33529;49.242;8.670;2022-08-01T06:26:38;23.00;99.90
47765;DHT22;33529;49.242;8.670;2022-08-01T06:29:05;23.10;99.90
47765;DHT22;33529;49.242;8.670;2022-08-01T06:31:32;23.30;99.90
47765;DHT22;33529;49.242;8.670;2022-08-01T06:33:59;23.50;99.90
47765;DHT22;33529;49.242;8.670;2022-08-01T06:36:26;23.60;99.90
47765;DHT22;33529;49.242;8.670;2022-08-01T06:38:53;23.90;98.80
47765;DHT22;33529;49.242;8.670;2022-08-01T06:41:20;23.90;98.70
47765;DHT22;33529;49.242;8.670;2022-08-01T06:43:47;24.00;98.00
47765;DHT22;33529;49.242;8.670;2022-08-01T06:46:14;24.20;97.70
47765;DHT22;33529;49.242;8.670;2022-08-01T06:48:41;24.40;97.40
47765;DHT22;33529;49.242;8.670;2022-08-01T06:51:09;24.40;96.30
47765;DHT22;33529;49.242;8.670;2022-08-01T06:53:38;24.40;96.90
47765;DHT22;33529;49.242;8.670;2022-08-01T06:56:06;24.50;96.10
47765;DHT22;33529;49.242;8.670;2022-08-01T06:58:33;24.70;95.90
47765;DHT22;33529;49.242;8.670;2022-08-01T07:01:05;24.60;95.50
47765;DHT22;33529;49.242;8.670;2022-08-01T07:03:35;24.60;95.20
47765;DHT22;33529;49.242;8.670;2022-08-01T07:06:22;24.90;95.00
47765;DHT22;33529;49.242;8.670;2022-08-01T07:08:49;25.00;94.30
47765;DHT22;33529;49.242;8.670;2022-08-01T07:11:16;25.00;94.50
47765;DHT22;33529;49.242;8.670;2022-08-01T07:13:42;25.10;93.90
47765;DHT22;33529;49.242;8.670;2022-08-01T07:16:15;25.10;93.60
47765;DHT22;33529;49.242;8.670;2022-08-01T07:18:43;25.20;93.90
47765;DHT22;33529;49.242;8.670;2022-08-01T07:21:10;25.40;93.50
47765;DHT22;33529;49.242;8.670;2022-08-01T07:23:57;25.60;93.40
47765;DHT22;33529;49.242;8.670;2022-08-01T07:26:25;25.70;93.10
47765;DHT22;33529;49.242;8.670;2022-08-01T07:28:54;25.80;93.10
47765;DHT22;33529;49.242;8.670;2022-08-01T07:31:21;25.60;92.90
47765;DHT22;33529;49.242;8.670;2022-08-01T07:33:47;25.50;92.80
47765;DHT22;33529;49.242;8.670;2022-08-01T07:36:16;25.30;93.10
47765;DHT22;33529;49.242;8.670;2022-08-01T07:38:43;25.30;93.60
47765;DHT22;33529;49.242;8.670;2022-08-01T07:41:10;25.40;92.90
47765;DHT22;33529;49.242;8.670;2022-08-01T07:43:37;25.40;92.80
47765;DHT22;33529;49.242;8.670;2022-08-01T07:46:04;25.40;92.80
47765;DHT22;33529;49.242;8.670;2022-08-01T07:48:31;25.40;92.50
47765;DHT22;33529;49.242;8.670;2022-08-01T07:50:59;25.60;92.80
47765;DHT22;33529;49.242;8.670;2022-08-01T07:53:25;25.70;93.10
47765;DHT22;33529;49.242;8.670;2022-08-01T07:55:52;25.80;92.30
47765;DHT22;33529;49.242;8.670;2022-08-01T07:58:19;26.10;92.70
47765;DHT22;33529;49.242;8.670;2022-08-01T08:00:47;26.10;92.10
47765;DHT22;33529;49.242;8.670;2022-08-01T08:03:14;26.50;92.00
47765;DHT22;33529;49.242;8.670;2022-08-01T08:05:41;26.40;91.10
47765;DHT22;33529;49.242;8.670;2022-08-01T08:08:26;26.10;91.60
47765;DHT22;33529;49.242;8.670;2022-08-01T08:10:53;25.80;91.60
47765;DHT22;33529;49.242;8.670;2022-08-01T08:13:20;25.60;92.00
47765;DHT22;33529;49.242;8.670;2022-08-01T08:15:47;25.50;92.20
47765;DHT22;33529;49.242;8.670;2022-08-01T08:18:15;25.40;92.40
47765;DHT22;33529;49.242;8.670;2022-08-01T08:20:42;25.40;92.30
47765;DHT22;33529;49.242;8.670;2022-08-01T08:23:09;25.70;92.30
47765;DHT22;33529;49.242;8.670;2022-08-01T08:26:10;26.20;91.90
47765;DHT22;33529;49.242;8.670;2022-08-01T08:28:37;26.60;91.00
47765;DHT22;33529;49.242;8.670;2022-08-01T08:31:07;26.50;91.40
47765;DHT22;33529;49.242;8.670;2022-08-01T08:33:54;26.60;91.10
47765;DHT22;33529;49.242;8.670;2022-08-01T08:36:21;26.40;90.70
47765;DHT22;33529;49.242;8.670;2022-08-01T08:38:57;26.50;91.00
47765;DHT22;33529;49.242;8.670;2022-08-01T08:41:25;26.50;90.20
47765;DHT22;33529;49.242;8.670;2022-08-01T08:44:07;26.40;90.70
47765;DHT22;33529;49.242;8.670;2022-08-01T08:46:47;26.40;89.70
47765;DHT22;33529;49.242;8.670;2022-08-01T08:49:20;26.70;89.60
47765;DHT22;33529;49.242;8.670;2022-08-01T08:51:50;26.80;90.20
47765;DHT22;33529;49.242;8.670;2022-08-01T08:54:19;26.90;87.90
47765;DHT22;33529;49.242;8.670;2022-08-01T08:56:47;27.10;87.60
47765;DHT22;33529;49.242;8.670;2022-08-01T08:59:15;27.30;86.70
47765;DHT22;33529;49.242;8.670;2022-08-01T09:01:42;27.00;85.90
47765;DHT22;33529;49.242;8.670;2022-08-01T09:04:11;27.00;86.90
47765;DHT22;33529;49.242;8.670;2022-08-01T09:06:38;26.90;86.70
47765;DHT22;33529;49.242;8.670;2022-08-01T09:09:07;26.80;87.80
47765;DHT22;33529;49.242;8.670;2022-08-01T09:11:35;26.80;86.70
47765;DHT22;33529;49.242;8.670;2022-08-01T09:14:14;26.70;86.80
47765;DHT22;33529;49.242;8.670;2022-08-01T09:16:43;26.40;86.20
47765;DHT22;33529;49.242;8.670;2022-08-01T09:19:17;26.50;87.20
47765;DHT22;33529;49.242;8.670;2022-08-01T09:22:06;26.60;87.30
47765;DHT22;33529;49.242;8.670;2022-08-01T09:24:34;26.60;87.20
47765;DHT22;33529;49.242;8.670;2022-08-01T09:27:18;26.60;87.00
47765;DHT22;33529;49.242;8.670;2022-08-01T09:29:48;26.60;86.60
47765;DHT22;33529;49.242;8.670;2022-08-01T09:32:29;26.50;87.80
47765;DHT22;33529;49.242;8.670;2022-08-01T09:35:30;26.90;87.90
47765;DHT22;33529;49.242;8.670;2022-08-01T09:43:17;26.80;84.90
47765;DHT22;33529;49.242;8.670;2022-08-01T09:45:45;26.60;85.70
47765;DHT22;33529;49.242;8.670;2022-08-01T09:48:17;26.70;85.60
47765;DHT22;33529;49.242;8.670;2022-08-01T09:50:49;26.90;85.60
47765;DHT22;33529;49.242;8.670;2022-08-01T09:53:16;27.10;85.20
47765;DHT22;33529;49.242;8.670;2022-08-01T09:56:11;27.10;86.00
47765;DHT22;33529;49.242;8.670;2022-08-01T09:58:55;27.10;86.10
47765;DHT22;33529;49.242;8.670;2022-08-01T10:01:40;27.20;85.50
47765;DHT22;33529;49.242;8.670;2022-08-01T10:04:09;27.30;85.20
47765;DHT22;33529;49.242;8.670;2022-08-01T10:06:42;27.40;85.50
47765;DHT22;33529;49.242;8.670;2022-08-01T10:09:13;27.80;84.30
47765;DHT22;33529;49.242;8.670;2022-08-01T10:11:43;28.40;83.30
47765;DHT22;33529;49.242;8.670;2022-08-01T10:14:13;28.80;83.50
47765;DHT22;33529;49.242;8.670;2022-08-01T10:16:45;29.10;82.40
47765;DHT22;33529;49.242;8.670;2022-08-01T10:19:30;29.20;81.00
47765;DHT22;33529;49.242;8.670;2022-08-01T10:22:00;29.20;81.50
47765;DHT22;33529;49.242;8.670;2022-08-01T10:24:29;28.70;81.10
47765;DHT22;33529;49.242;8.670;2022-08-01T10:27:03;28.50;81.60
47765;DHT22;33529;49.242;8.670;2022-08-01T10:29:47;28.40;82.20
47765;DHT22;33529;49.242;8.670;2022-08-01T10:32:35;28.60;82.00
47765;DHT22;33529;49.242;8.670;2022-08-01T10:35:06;28.10;82.30
47765;DHT22;33529;49.242;8.670;2022-08-01T10:37:41;27.90;83.20
47765;DHT22;33529;49.242;8.670;2022-08-01T10:40:18;27.60;83.50
47765;DHT22;33529;49.242;8.670;2022-08-01T10:42:57;27.50;83.70
47765;DHT22;33529;49.242;8.670;2022-08-01T10:45:24;27.60;83.40
47765;DHT22;33529;49.242;8.670;2022-08-01T10:48:04;27.50;84.70
47765;DHT22;33529;49.242;8.670;2022-08-01T10:50:37;27.50;83.70
47765;DHT22;33529;49.242;8.670;2022-08-01T10:58:30;27.10;85.70
47765;DHT22;33529;49.242;8.670;2022-08-01T11:03:43;27.40;84.00
47765;DHT22;33529;49.242;8.670;2022-08-01T11:06:36;27.20;85.10
47765;DHT22;33529;49.242;8.670;2022-08-01T11:09:27;27.40;85.60
47765;DHT22;33529;49.242;8.670;2022-08-01T11:12:37;27.60;84.00
47765;DHT22;33529;49.242;8.670;2022-08-01T11:17:37;28.10;83.40
47765;DHT22;33529;49.242;8.670;2022-08-01T11:28:25;28.80;82.60
47765;DHT22;33529;49.242;8.670;2022-08-01T11:39:33;28.50;80.90
47765;DHT22;33529;49.242;8.670;2022-08-01T11:41:40;28.50;80.90
47765;DHT22;33529;49.242;8.670;2022-08-01T11:44:18;28.70;80.70
47765;DHT22;33529;49.242;8.670;2022-08-01T11:46:58;28.90;80.50
47765;DHT22;33529;49.242;8.670;2022-08-01T11:49:49;29.10;80.50
47765;DHT22;33529;49.242;8.670;2022-08-01T11:52:27;29.20;80.10
47765;DHT22;33529;49.242;8.670;2022-08-01T11:55:08;29.50;80.80
47765;DHT22;33529;49.242;8.670;2022-08-01T11:57:37;29.80;80.60
47765;DHT22;33529;49.242;8.670;2022-08-01T12:00:25;30.20;77.70
47765;DHT22;33529;49.242;8.670;2022-08-01T12:02:58;30.50;77.40
47765;DHT22;33529;49.242;8.670;2022-08-01T12:05:27;30.40;77.60
47765;DHT22;33529;49.242;8.670;2022-08-01T12:07:57;30.50;76.90
47765;DHT22;33529;49.242;8.670;2022-08-01T12:10:26;30.80;75.60
47765;DHT22;33529;49.242;8.670;2022-08-01T12:12:58;31.10;75.10
47765;DHT22;33529;49.242;8.670;2022-08-01T12:15:34;31.00;74.40
47765;DHT22;33529;49.242;8.670;2022-08-01T12:18:05;30.90;74.30
47765;DHT22;33529;49.242;8.670;2022-08-01T12:20:38;30.40;75.20
47765;DHT22;33529;49.242;8.670;2022-08-01T12:23:20;30.30;75.70
47765;DHT22;33529;49.242;8.670;2022-08-01T12:25:51;30.30;75.80
47765;DHT22;33529;49.242;8.670;2022-08-01T12:28:18;30.20;76.90
47765;DHT22;33529;49.242;8.670;2022-08-01T12:30:47;30.20;76.20
47765;DHT22;33529;49.242;8.670;2022-08-01T12:33:17;29.60;77.30
47765;DHT22;33529;49.242;8.670;2022-08-01T12:35:45;29.60;77.90
47765;DHT22;33529;49.242;8.670;2022-08-01T12:38:17;29.80;76.80
47765;DHT22;33529;49.242;8.670;2022-08-01T12:40:46;29.80;77.10
47765;DHT22;33529;49.242;8.670;2022-08-01T12:43:21;29.80;75.90
47765;DHT22;33529;49.242;8.670;2022-08-01T12:45:55;29.70;75.40
47765;DHT22;33529;49.242;8.670;2022-08-01T12:48:24;29.50;76.30
47765;DHT22;33529;49.242;8.670;2022-08-01T12:50:52;29.20;76.40
47765;DHT22;33529;49.242;8.670;2022-08-01T12:53:20;29.00;76.00
47765;DHT22;33529;49.242;8.670;2022-08-01T12:55:50;29.10;77.10
47765;DHT22;33529;49.242;8.670;2022-08-01T12:58:31;29.20;76.80
47765;DHT22;33529;49.242;8.670;2022-08-01T13:01:08;29.50;75.70
47765;DHT22;33529;49.242;8.670;2022-08-01T13:03:36;29.40;76.50
47765;DHT22;33529;49.242;8.670;2022-08-01T13:06:14;29.50;76.00
47765;DHT22;33529;49.242;8.670;2022-08-01T13:08:44;29.40;76.60
47765;DHT22;33529;49.242;8.670;2022-08-01T13:11:12;29.20;77.00
47765;DHT22;33529;49.242;8.670;2022-08-01T13:13:49;29.30;75.60
47765;DHT22;33529;49.242;8.670;2022-08-01T13:16:18;29.60;76.40
47765;DHT22;33529;49.242;8.670;2022-08-01T13:19:04;29.80;76.10
47765;DHT22;33529;49.242;8.670;2022-08-01T13:21:32;29.80;75.10
47765;DHT22;33529;49.242;8.670;2022-08-01T13:24:29;29.90;74.10
47765;DHT22;33529;49.242;8.670;2022-08-01T13:26:57;30.00;73.20
47765;DHT22;33529;49.242;8.670;2022-08-01T13:29:34;30.10;73.70
47765;DHT22;33529;49.242;8.670;2022-08-01T13:32:14;30.10;73.40
47765;DHT22;33529;49.242;8.670;2022-08-01T13:35:06;30.30;73.60
47765;DHT22;33529;49.242;8.670;2022-08-01T13:37:35;30.10;72.90
47765;DHT22;33529;49.242;8.670;2022-08-01T13:40:05;30.00;72.80
47765;DHT22;33529;49.242;8.670;2022-08-01T13:42:33;29.80;74.00
47765;DHT22;33529;49.242;8.670;2022-08-01T13:45:00;30.20;73.00
47765;DHT22;33529;49.242;8.670;2022-08-01T13:47:28;30.00;73.00
47765;DHT22;33529;49.242;8.670;2022-08-01T13:49:59;30.00;73.80
47765;DHT22;33529;49.242;8.670;2022-08-01T13:52:29;29.80;73.40
47765;DHT22;33529;49.242;8.670;2022-08-01T13:54:57;29.80;74.60
47765;DHT22;33529;49.242;8.670;2022-08-01T13:57:24;29.70;73.40
47765;DHT22;33529;49.242;8.670;2022-08-01T14:00:06;29.50;74.10
47765;DHT22;33529;49.242;8.670;2022-08-01T14:02:37;29.50;74.10
47765;DHT22;33529;49.242;8.670;2022-08-01T14:05:04;29.60;74.40
47765;DHT22;33529;49.242;8.670;2022-08-01T14:07:31;29.70;73.70
47765;DHT22;33529;49.242;8.670;2022-08-01T14:09:58;29.60;73.60
47765;DHT22;33529;49.242;8.670;2022-08-01T14:12:44;29.80;74.20
47765;DHT22;33529;49.242;8.670;2022-08-01T14:15:11;29.70;73.50
47765;DHT22;33529;49.242;8.670;2022-08-01T14:17:39;29.60;74.20
47765;DHT22;33529;49.242;8.670;2022-08-01T14:20:13;29.80;73.90
47765;DHT22;33529;49.242;8.670;2022-08-01T14:22:40;30.00;73.00
47765;DHT22;33529;49.242;8.670;2022-08-01T14:25:07;30.30;72.90
47765;DHT22;33529;49.242;8.670;2022-08-01T14:27:35;30.30;73.20
47765;DHT22;33529;49.242;8.670;2022-08-01T14:30:06;30.40;71.00
47765;DHT22;33529;49.242;8.670;2022-08-01T14:32:34;30.20;72.10
47765;DHT22;33529;49.242;8.670;2022-08-01T14:35:02;30.00;72.00
47765;DHT22;33529;49.242;8.670;2022-08-01T14:37:29;29.40;72.70
47765;DHT22;33529;49.242;8.670;2022-08-01T14:40:04;29.00;74.00
47765;DHT22;33529;49.242;8.670;2022-08-01T14:42:36;29.00;75.10
47765;DHT22;33529;49.242;8.670;2022-08-01T14:45:04;29.10;75.20
47765;DHT22;33529;49.242;8.670;2022-08-01T14:47:36;29.20;73.70
47765;DHT22;33529;49.242;8.670;2022-08-01T14:50:05;29.10;73.30
47765;DHT22;33529;49.242;8.670;2022-08-01T14:52:33;29.00;74.60
47765;DHT22;33529;49.242;8.670;2022-08-01T14:55:00;29.00;74.60
47765;DHT22;33529;49.242;8.670;2022-08-01T14:57:28;29.20;73.20
47765;DHT22;33529;49.242;8.670;2022-08-01T14:59:55;29.20;73.30
47765;DHT22;33529;49.242;8.670;2022-08-01T15:02:22;29.30;72.80
47765;DHT22;33529;49.242;8.670;2022-08-01T15:04:50;29.40;72.80
47765;DHT22;33529;49.242;8.670;2022-08-01T15:07:18;29.30;72.90
47765;DHT22;33529;49.242;8.670;2022-08-01T15:09:45;29.10;72.80
47765;DHT22;33529;49.242;8.670;2022-08-01T15:12:12;29.20;73.00
47765;DHT22;33529;49.242;8.670;2022-08-01T15:14:39;29.30;72.80
47765;DHT22;33529;49.242;8.670;2022-08-01T15:17:27;29.50;72.30
47765;DHT22;33529;49.242;8.670;2022-08-01T15:20:01;29.40;72.40
47765;DHT22;33529;49.242;8.670;2022-08-01T15:22:29;29.70;72.20
47765;DHT22;33529;49.242;8.670;2022-08-01T15:24:58;30.10;71.40
47765;DHT22;33529;49.242;8.670;2022-08-01T15:27:27;30.60;70.20
47765;DHT22;33529;49.242;8.670;2022-08-01T15:29:54;31.00;69.80
47765;DHT22;33529;49.242;8.670;2022-08-01T15:32:22;31.50;69.80
47765;DHT22;33529;49.242;8.670;2022-08-01T15:34:50;32.40;68.50
47765;DHT22;33529;49.242;8.670;2022-08-01T15:37:18;32.40;68.10
47765;DHT22;33529;49.242;8.670;2022-08-01T15:39:45;31.90;68.00
47765;DHT22;33529;49.242;8.670;2022-08-01T15:42:15;31.10;68.90
47765;DHT22;33529;49.242;8.670;2022-08-01T15:44:49;30.60;69.60
47765;DHT22;33529;49.242;8.670;2022-08-01T15:47:16;30.10;70.50
47765;DHT22;33529;49.242;8.670;2022-08-01T15:49:43;29.60;71.70
47765;DHT22;33529;49.242;8.670;2022-08-01T15:52:10;29.30;71.70
47765;DHT22;33529;49.242;8.670;2022-08-01T15:54:48;29.00;71.60
47765;DHT22;33529;49.242;8.670;2022-08-01T15:57:16;28.80;71.90
47765;DHT22;33529;49.242;8.670;2022-08-01T15:59:42;28.60;72.60
47765;DHT22;33529;49.242;8.670;2022-08-01T16:02:09;28.60;73.20
47765;DHT22;33529;49.242;8.670;2022-08-01T16:04:37;28.50;72.70
47765;DHT22;33529;49.242;8.670;2022-08-01T16:07:05;28.30;72.60
47765;DHT22;33529;49.242;8.670;2022-08-01T16:09:32;28.10;73.50
47765;DHT22;33529;49.242;8.670;2022-08-01T16:11:59;28.10;73.50
47765;DHT22;33529;49.242;8.670;2022-08-01T16:14:26;28.10;73.30
47765;DHT22;33529;49.242;8.670;2022-08-01T16:16:53;27.90;74.30
47765;DHT22;33529;49.242;8.670;2022-08-01T16:19:20;27.80;74.20
47765;DHT22;33529;49.242;8.670;2022-08-01T16:21:47;27.70;73.20
47765;DHT22;33529;49.242;8.670;2022-08-01T16:24:14;27.80;73.60
47765;DHT22;33529;49.242;8.670;2022-08-01T16:26:43;27.80;73.20
47765;DHT22;33529;49.242;8.670;2022-08-01T16:29:10;27.90;74.40
47765;DHT22;33529;49.242;8.670;2022-08-01T16:31:37;27.90;74.90
47765;DHT22;33529;49.242;8.670;2022-08-01T16:34:24;27.90;74.10
47765;DHT22;33529;49.242;8.670;2022-08-01T16:36:51;27.80;74.80
47765;DHT22;33529;49.242;8.670;2022-08-01T16:39:19;27.90;74.40
47765;DHT22;33529;49.242;8.670;2022-08-01T16:41:50;27.90;74.50
47765;DHT22;33529;49.242;8.670;2022-08-01T16:44:22;27.90;74.50
47765;DHT22;33529;49.242;8.670;2022-08-01T16:47:00;28.00;75.10